createdAt,value
2017-07-26T00:00:21.611Z,1001.32
2017-07-26T00:05:18.714Z,1001.26
2017-07-26T00:10:14.494Z,1001.34
2017-07-26T00:15:10.379Z,1001.42
2017-07-26T00:20:06.395Z,1001.45
2017-07-26T00:25:02.385Z,1001.48
2017-07-26T00:29:58.732Z,1001.52
2017-07-26T00:34:54.590Z,1001.55
2017-07-26T00:39:51.432Z,1001.52
2017-07-26T00:44:47.118Z,1001.60
2017-07-26T00:49:43.997Z,1001.55
2017-07-26T00:54:40.100Z,1001.56
2017-07-26T00:59:36.512Z,1001.55
2017-07-26T01:04:32.695Z,1001.63
2017-07-26T01:09:28.570Z,1001.69
2017-07-26T01:14:24.679Z,1001.63
2017-07-26T01:19:20.730Z,1001.64
2017-07-26T01:24:16.227Z,1001.57
2017-07-26T01:29:12.344Z,1001.52
2017-07-26T01:34:09.369Z,1001.46
2017-07-26T01:39:05.053Z,1001.43
2017-07-26T01:49:02.043Z,1001.36
2017-07-26T01:53:57.880Z,1001.40
2017-07-26T01:58:53.408Z,1001.43
2017-07-26T02:03:49.677Z,1001.44
2017-07-26T02:08:45.553Z,1001.44
2017-07-26T02:13:42.510Z,1001.51
2017-07-26T02:18:39.072Z,1001.37
2017-07-26T02:23:35.831Z,1001.43
2017-07-26T02:28:32.415Z,1001.38
2017-07-26T02:33:30.897Z,1001.38
2017-07-26T02:38:26.513Z,1001.43
2017-07-26T02:43:27.471Z,1001.53
2017-07-26T02:48:23.287Z,1001.44
2017-07-26T02:53:19.008Z,1001.45
2017-07-26T02:58:14.810Z,1001.58
2017-07-26T03:03:10.925Z,1001.59
2017-07-26T03:08:06.823Z,1001.51
2017-07-26T03:13:02.915Z,1001.52
2017-07-26T03:17:58.754Z,1001.52
2017-07-26T03:22:55.833Z,1001.56
2017-07-26T03:27:51.262Z,1001.53
2017-07-26T03:32:47.227Z,1001.46
2017-07-26T03:37:44.598Z,1001.48
2017-07-26T03:42:39.895Z,1001.43
2017-07-26T03:47:36.758Z,1001.50
2017-07-26T03:52:32.408Z,1001.54
2017-07-26T03:57:29.388Z,1001.48
2017-07-26T04:02:26.145Z,1001.38
2017-07-26T04:07:21.819Z,1001.47
2017-07-26T04:12:17.733Z,1001.47
2017-07-26T04:17:13.920Z,1001.56
2017-07-26T04:22:09.894Z,1001.58
2017-07-26T04:27:05.844Z,1001.57
2017-07-26T04:32:03.087Z,1001.71
2017-07-26T04:36:58.901Z,1001.67
2017-07-26T04:41:55.631Z,1001.65
2017-07-26T04:46:52.558Z,1001.61
2017-07-26T04:51:48.177Z,1001.56
2017-07-26T04:56:45.398Z,1001.53
2017-07-26T05:01:42.816Z,1001.68
2017-07-26T05:06:38.492Z,1001.59
2017-07-26T05:11:35.577Z,1001.61
2017-07-26T05:16:31.273Z,1001.60
2017-07-26T05:21:27.375Z,1001.61
2017-07-26T05:26:23.167Z,1001.65
2017-07-26T05:31:20.416Z,1001.64
2017-07-26T05:36:16.112Z,1001.71
2017-07-26T05:41:13.082Z,1001.79
2017-07-26T05:46:09.777Z,1001.80
2017-07-26T05:51:06.041Z,1001.78
2017-07-26T05:56:02.168Z,1001.90
2017-07-26T06:00:59.440Z,1001.83
2017-07-26T06:05:55.586Z,1001.89
2017-07-26T06:10:52.814Z,1001.84
2017-07-26T06:15:49.632Z,1001.92
2017-07-26T06:20:46.651Z,1001.84
2017-07-26T06:25:42.179Z,1001.94
2017-07-26T06:30:38.509Z,1001.93
2017-07-26T06:35:35.303Z,1001.82
2017-07-26T06:40:31.325Z,1001.93
2017-07-26T06:45:28.483Z,1001.95
2017-07-26T06:50:24.427Z,1002.04
2017-07-26T06:55:21.110Z,1002.02
2017-07-26T07:00:19.182Z,1002.09
2017-07-26T07:05:14.340Z,1002.17
2017-07-26T07:10:10.036Z,1002.25
2017-07-26T07:15:06.255Z,1002.19
2017-07-26T07:20:02.023Z,1002.30
2017-07-26T07:24:58.193Z,1002.32
2017-07-26T07:29:54.425Z,1002.18
2017-07-26T07:34:52.304Z,1002.32
2017-07-26T07:39:48.681Z,1002.23
2017-07-26T07:44:44.468Z,1002.27
2017-07-26T07:49:42.352Z,1002.18
2017-07-26T07:54:38.574Z,1002.24
2017-07-26T07:59:36.090Z,1002.42
2017-07-26T08:04:33.461Z,1002.29
2017-07-26T08:09:31.430Z,1002.29
2017-07-26T08:14:29.628Z,1002.30
2017-07-26T08:19:27.902Z,1002.27
2017-07-26T08:24:26.589Z,1002.30
2017-07-26T08:29:23.570Z,1002.21
2017-07-26T08:34:20.267Z,1002.13
2017-07-26T08:39:17.699Z,1002.34
2017-07-26T08:44:13.550Z,1002.27
2017-07-26T08:49:11.105Z,1002.27
2017-07-26T08:54:07.714Z,1002.29
2017-07-26T08:59:04.663Z,1002.28
2017-07-26T09:04:02.580Z,1002.20
2017-07-26T09:08:57.271Z,1002.40
2017-07-26T09:13:55.720Z,1002.43
2017-07-26T09:18:51.035Z,1002.48
2017-07-26T09:23:47.581Z,1002.10
2017-07-26T09:28:43.803Z,1002.48
2017-07-26T09:33:40.596Z,1002.43
2017-07-26T09:38:37.333Z,1002.18
2017-07-26T09:43:32.593Z,1002.11
2017-07-26T09:48:27.846Z,1002.26
2017-07-26T09:53:24.712Z,1002.58
2017-07-26T09:58:22.022Z,1002.57
2017-07-26T10:03:18.641Z,1002.66
2017-07-26T10:08:15.596Z,1002.62
2017-07-26T10:13:12.050Z,1002.33
2017-07-26T10:18:05.738Z,1002.49
2017-07-26T10:23:00.672Z,1002.64
2017-07-26T10:27:59.468Z,1002.74
2017-07-26T10:32:56.974Z,1002.74
2017-07-26T10:37:53.947Z,1002.65
2017-07-26T10:42:51.072Z,1002.46
2017-07-26T10:47:44.917Z,1002.36
2017-07-26T10:52:38.934Z,1002.54
2017-07-26T10:57:33.412Z,1002.41
2017-07-26T11:02:32.448Z,1002.62
2017-07-26T11:07:30.877Z,1002.35
2017-07-26T11:12:27.515Z,1002.57
2017-07-26T11:17:25.404Z,1002.57
2017-07-26T11:22:22.133Z,1002.59
2017-07-26T11:27:21.186Z,1002.50
2017-07-26T11:32:19.406Z,1002.48
2017-07-26T11:37:16.743Z,1002.49
2017-07-26T11:42:14.918Z,1002.34
2017-07-26T11:52:09.632Z,1002.14
2017-07-26T11:57:07.412Z,1002.06
2017-07-26T12:02:06.310Z,1002.15
2017-07-26T12:07:02.927Z,1002.13
2017-07-26T12:12:00.212Z,1002.15
2017-07-26T12:16:57.416Z,1002.10
2017-07-26T12:21:54.280Z,1002.12
2017-07-26T12:26:50.144Z,1002.07
2017-07-26T12:31:43.952Z,1002.04
2017-07-26T12:36:43.147Z,1002.12
2017-07-26T12:41:39.381Z,1001.99
2017-07-26T12:46:36.494Z,1002.10
2017-07-26T12:51:32.561Z,1002.19
2017-07-26T12:56:28.748Z,1002.18
2017-07-26T13:01:24.972Z,1002.08
2017-07-26T13:06:20.849Z,1002.18
2017-07-26T13:11:17.697Z,1002.05
2017-07-26T13:16:12.320Z,1002.09
2017-07-26T13:21:09.698Z,1002.17
2017-07-26T13:26:05.785Z,1001.99
2017-07-26T13:31:01.355Z,1002.07
2017-07-26T13:35:57.382Z,1002.03
2017-07-26T13:40:53.879Z,1002.02
2017-07-26T13:45:49.412Z,1002.01
2017-07-26T13:50:46.192Z,1001.99
2017-07-26T13:55:41.508Z,1001.96
2017-07-26T14:00:37.292Z,1001.91
2017-07-26T14:05:33.303Z,1001.88
2017-07-26T14:10:28.323Z,1001.94
2017-07-26T14:15:24.941Z,1001.91
2017-07-26T14:20:20.570Z,1001.87
2017-07-26T14:25:15.710Z,1001.90
2017-07-26T14:30:11.141Z,1001.91
2017-07-26T14:35:07.000Z,1001.92
2017-07-26T14:40:04.912Z,1001.89
2017-07-26T14:45:01.057Z,1001.85
2017-07-26T14:49:57.909Z,1001.82
2017-07-26T14:54:54.068Z,1001.82
2017-07-26T14:59:51.078Z,1001.72
2017-07-26T15:04:47.784Z,1001.80
2017-07-26T15:09:43.440Z,1001.83
2017-07-26T15:14:39.134Z,1001.80
2017-07-26T15:19:37.295Z,1001.76
2017-07-26T15:24:32.747Z,1001.75
2017-07-26T15:29:29.831Z,1001.80
2017-07-26T15:34:25.454Z,1001.79
2017-07-26T15:39:21.202Z,1001.76
2017-07-26T15:44:17.153Z,1001.74
2017-07-26T15:49:14.320Z,1001.68
2017-07-26T15:54:13.194Z,1001.72
2017-07-26T15:59:08.879Z,1001.68
2017-07-26T16:04:06.081Z,1001.65
2017-07-26T16:09:01.669Z,1001.62
2017-07-26T16:19:00.960Z,1001.71
2017-07-26T16:23:58.493Z,1001.61
2017-07-26T16:28:56.256Z,1001.58
2017-07-26T16:33:51.759Z,1001.63
2017-07-26T16:43:48.090Z,1001.69
2017-07-26T16:48:43.958Z,1001.68
2017-07-26T16:53:40.288Z,1001.71
2017-07-26T16:58:36.404Z,1001.64
2017-07-26T17:03:34.378Z,1001.63
2017-07-26T17:08:33.080Z,1001.66
2017-07-26T17:13:29.240Z,1001.72
2017-07-26T17:18:27.158Z,1001.58
2017-07-26T17:23:22.563Z,1001.71
2017-07-26T17:28:18.432Z,1001.69
2017-07-26T17:33:15.319Z,1001.70
2017-07-26T17:38:12.067Z,1001.67
2017-07-26T17:43:07.823Z,1001.73
2017-07-26T17:48:03.935Z,1001.77
2017-07-26T17:53:00.202Z,1001.86
2017-07-26T17:57:56.942Z,1001.72
2017-07-26T18:02:55.025Z,1001.86
2017-07-26T18:07:50.332Z,1001.82
2017-07-26T18:12:46.052Z,1001.83
2017-07-26T18:17:42.153Z,1001.68
2017-07-26T18:22:39.137Z,1001.80
2017-07-26T18:27:34.874Z,1001.81
2017-07-26T18:32:31.513Z,1001.70
2017-07-26T18:37:29.695Z,1001.66
2017-07-26T18:42:26.326Z,1001.76
2017-07-26T18:47:21.935Z,1001.69
2017-07-26T18:52:17.682Z,1001.66
2017-07-26T18:57:13.675Z,1001.73
2017-07-26T19:07:11.349Z,1001.70
2017-07-26T19:12:08.045Z,1001.65
2017-07-26T19:17:03.875Z,1001.70
2017-07-26T19:22:00.491Z,1001.68
2017-07-26T19:26:58.275Z,1001.73
2017-07-26T19:31:53.382Z,1001.73
2017-07-26T19:36:49.582Z,1001.80
2017-07-26T19:41:46.461Z,1001.76
2017-07-26T19:46:42.312Z,1001.78
2017-07-26T19:51:38.366Z,1001.67
2017-07-26T19:56:34.583Z,1001.71
2017-07-26T20:01:31.698Z,1001.82
2017-07-26T20:06:28.150Z,1001.80
2017-07-26T20:11:24.170Z,1001.81
2017-07-26T20:16:20.465Z,1001.77
2017-07-26T20:21:17.456Z,1001.86
2017-07-26T20:26:14.394Z,1001.72
2017-07-26T20:31:10.213Z,1001.70
2017-07-26T20:36:05.995Z,1001.71
2017-07-26T20:41:02.064Z,1001.56
2017-07-26T20:45:59.467Z,1001.58
2017-07-26T20:50:54.916Z,1001.52
2017-07-26T20:55:51.094Z,1001.52
2017-07-26T21:00:48.258Z,1001.67
2017-07-26T21:05:43.679Z,1001.70
2017-07-26T21:10:39.421Z,1001.67
2017-07-26T21:15:35.795Z,1001.56
2017-07-26T21:20:32.002Z,1001.55
2017-07-26T21:25:29.281Z,1001.50
2017-07-26T21:30:26.065Z,1001.50
2017-07-26T21:35:22.620Z,1001.61
2017-07-26T21:40:23.577Z,1001.59
2017-07-26T21:45:19.246Z,1001.57
2017-07-26T21:50:15.523Z,1001.42
2017-07-26T21:55:11.420Z,1001.34
2017-07-26T22:00:07.305Z,1001.29
2017-07-26T22:05:04.287Z,1001.21
2017-07-26T22:10:01.143Z,1001.23
2017-07-26T22:14:56.904Z,1001.28
2017-07-26T22:19:54.180Z,1001.20
2017-07-26T22:24:49.861Z,1001.04
2017-07-26T22:29:46.599Z,1000.98
2017-07-26T22:34:42.973Z,1000.94
2017-07-26T22:39:40.216Z,1000.94
2017-07-26T22:44:37.382Z,1000.86
2017-07-26T22:49:34.037Z,1000.95
2017-07-26T22:54:30.325Z,1000.89
2017-07-26T22:59:27.988Z,1000.72
2017-07-26T23:04:24.631Z,1000.70
2017-07-26T23:14:21.862Z,1000.81
2017-07-26T23:19:19.489Z,1000.79
2017-07-26T23:24:17.125Z,1000.77
2017-07-26T23:29:13.002Z,1000.83
2017-07-26T23:34:10.682Z,1000.73
2017-07-26T23:39:07.376Z,1000.61
2017-07-26T23:44:10.359Z,1000.74
2017-07-26T23:49:12.265Z,1000.66
2017-07-26T23:54:07.816Z,1000.68
2017-07-26T23:59:03.707Z,1000.66
